createdAt,value
2018-07-08T00:01:05.800Z,99.90
2018-07-08T00:03:34.122Z,99.90
2018-07-08T00:06:13.945Z,99.90
2018-07-08T00:08:42.624Z,99.90
2018-07-08T00:11:14.450Z,99.90
2018-07-08T00:13:49.045Z,99.90
2018-07-08T00:16:17.350Z,99.90
2018-07-08T00:18:50.763Z,99.90
2018-07-08T00:21:25.436Z,99.90
2018-07-08T00:23:53.726Z,99.90
2018-07-08T00:26:24.994Z,99.90
2018-07-08T00:28:59.531Z,99.90
2018-07-08T00:31:31.847Z,99.90
2018-07-08T00:34:03.344Z,99.90
2018-07-08T00:36:37.899Z,99.90
2018-07-08T00:39:10.763Z,99.90
2018-07-08T00:41:38.975Z,99.90
2018-07-08T00:44:13.723Z,99.90
2018-07-08T00:46:42.101Z,99.90
2018-07-08T00:49:15.326Z,99.90
2018-07-08T00:51:47.827Z,99.90
2018-07-08T00:54:21.686Z,99.90
2018-07-08T00:56:50.038Z,99.90
2018-07-08T00:59:18.227Z,99.90
2018-07-08T01:04:18.064Z,99.90
2018-07-08T01:06:49.575Z,99.90
2018-07-08T01:09:20.950Z,99.90
2018-07-08T01:12:01.759Z,99.90
2018-07-08T01:14:34.973Z,99.90
2018-07-08T01:17:08.093Z,99.90
2018-07-08T01:19:36.618Z,99.90
2018-07-08T01:22:06.819Z,99.90
2018-07-08T01:24:35.234Z,99.90
2018-07-08T01:27:03.453Z,99.90
2018-07-08T01:29:36.350Z,99.90
2018-07-08T01:32:04.827Z,99.90
2018-07-08T01:34:33.116Z,99.90
2018-07-08T01:37:06.308Z,99.90
2018-07-08T01:39:37.309Z,99.90
2018-07-08T01:42:08.105Z,99.90
2018-07-08T01:44:40.734Z,99.90
2018-07-08T01:47:20.925Z,99.90
2018-07-08T01:49:56.442Z,99.90
2018-07-08T01:54:55.979Z,99.90
2018-07-08T01:57:27.174Z,99.90
2018-07-08T01:59:59.729Z,99.90
2018-07-08T02:02:28.343Z,99.90
2018-07-08T02:04:56.647Z,99.90
2018-07-08T02:07:28.733Z,99.90
2018-07-08T02:10:11.640Z,99.90
2018-07-08T02:12:40.049Z,99.90
2018-07-08T02:15:12.634Z,99.90
2018-07-08T02:17:40.962Z,99.90
2018-07-08T02:20:11.496Z,99.90
2018-07-08T02:22:39.870Z,99.90
2018-07-08T02:27:42.451Z,99.90
2018-07-08T02:30:18.458Z,99.90
2018-07-08T02:32:46.679Z,99.90
2018-07-08T02:35:22.964Z,99.90
2018-07-08T02:37:56.541Z,99.90
2018-07-08T02:40:31.080Z,99.90
2018-07-08T02:43:04.387Z,99.90
2018-07-08T02:45:39.010Z,99.90
2018-07-08T02:48:10.426Z,99.90
2018-07-08T02:50:41.189Z,99.90
2018-07-08T02:53:09.588Z,99.90
2018-07-08T02:55:37.841Z,99.90
2018-07-08T03:00:41.350Z,99.90
2018-07-08T03:03:16.379Z,99.90
2018-07-08T03:05:44.672Z,99.90
2018-07-08T03:08:19.486Z,99.90
2018-07-08T03:13:22.199Z,99.90
2018-07-08T03:15:55.111Z,99.90
2018-07-08T03:18:25.400Z,99.90
2018-07-08T03:20:53.669Z,99.90
2018-07-08T03:23:24.823Z,99.90
2018-07-08T03:25:57.338Z,99.90
2018-07-08T03:28:37.278Z,99.90
2018-07-08T03:31:05.505Z,99.90
2018-07-08T03:33:37.310Z,99.90
2018-07-08T03:36:05.954Z,99.90
2018-07-08T03:38:37.215Z,99.90
2018-07-08T03:41:05.587Z,99.90
2018-07-08T03:43:33.942Z,99.90
2018-07-08T03:46:02.289Z,99.90
2018-07-08T03:48:39.921Z,99.90
2018-07-08T03:51:08.116Z,99.90
2018-07-08T03:53:41.672Z,99.90
2018-07-08T03:56:16.465Z,99.90
2018-07-08T03:58:44.719Z,99.90
2018-07-08T04:01:17.192Z,99.90
2018-07-08T04:03:48.207Z,99.90
2018-07-08T04:06:28.328Z,99.90
2018-07-08T04:08:56.553Z,99.90
2018-07-08T04:11:24.807Z,99.90
2018-07-08T04:13:57.822Z,99.90
2018-07-08T04:19:13.676Z,99.90
2018-07-08T04:21:41.906Z,99.90
2018-07-08T04:24:10.543Z,99.90
2018-07-08T04:26:38.734Z,99.90
2018-07-08T04:29:13.158Z,99.90
2018-07-08T04:31:47.816Z,99.90
2018-07-08T04:34:16.072Z,99.90
2018-07-08T04:36:50.847Z,99.90
2018-07-08T04:39:19.067Z,99.90
2018-07-08T04:44:27.488Z,99.90
2018-07-08T04:46:57.956Z,99.90
2018-07-08T04:49:32.740Z,99.90
2018-07-08T04:52:07.414Z,99.90
2018-07-08T04:54:35.873Z,99.90
2018-07-08T04:57:06.754Z,99.90
2018-07-08T04:59:35.048Z,99.90
2018-07-08T05:02:03.250Z,99.90
2018-07-08T05:04:34.418Z,99.90
2018-07-08T05:07:08.153Z,99.90
2018-07-08T05:09:50.194Z,99.90
2018-07-08T05:12:30.366Z,99.90
2018-07-08T05:14:58.836Z,99.90
2018-07-08T05:17:27.123Z,99.90
2018-07-08T05:19:55.398Z,99.90
2018-07-08T05:22:35.443Z,99.90
2018-07-08T05:25:06.813Z,99.90
2018-07-08T05:27:37.109Z,99.90
2018-07-08T05:32:39.397Z,99.90
2018-07-08T05:35:10.773Z,99.90
2018-07-08T05:37:49.169Z,99.90
2018-07-08T05:40:19.615Z,99.90
2018-07-08T05:42:50.800Z,99.90
2018-07-08T05:45:19.029Z,99.90
2018-07-08T05:47:54.569Z,99.90
2018-07-08T05:50:25.693Z,99.90
2018-07-08T05:53:05.551Z,99.90
2018-07-08T05:55:33.910Z,99.90
2018-07-08T05:58:07.375Z,99.90
2018-07-08T06:00:40.565Z,99.90
2018-07-08T06:03:12.217Z,99.90
2018-07-08T06:05:49.461Z,99.90
2018-07-08T06:08:20.906Z,99.90
2018-07-08T06:13:29.097Z,99.90
2018-07-08T06:15:59.862Z,99.90
2018-07-08T06:18:28.320Z,99.90
2018-07-08T06:23:30.962Z,99.90
2018-07-08T06:26:03.453Z,99.90
2018-07-08T06:28:35.953Z,99.90
2018-07-08T06:31:04.285Z,99.90
2018-07-08T06:33:37.289Z,99.90
2018-07-08T06:36:07.506Z,99.90
2018-07-08T06:38:35.844Z,99.90
2018-07-08T06:41:06.734Z,99.90
2018-07-08T06:43:36.955Z,99.90
2018-07-08T06:46:05.275Z,99.90
2018-07-08T06:48:38.704Z,99.90
2018-07-08T06:51:11.201Z,99.90
2018-07-08T06:53:42.307Z,99.90
2018-07-08T06:56:14.699Z,99.90
2018-07-08T06:58:46.277Z,99.90
2018-07-08T07:01:18.618Z,99.60
2018-07-08T07:03:52.634Z,99.00
2018-07-08T07:06:20.859Z,98.90
2018-07-08T07:08:56.302Z,98.40
2018-07-08T07:11:31.166Z,98.00
2018-07-08T07:13:59.426Z,97.80
2018-07-08T07:16:32.077Z,98.10
2018-07-08T07:19:00.277Z,98.00
2018-07-08T07:21:39.980Z,98.30
2018-07-08T07:24:08.224Z,98.20
2018-07-08T07:26:48.131Z,98.10
2018-07-08T07:29:18.608Z,97.70
2018-07-08T07:32:05.994Z,97.00
2018-07-08T07:34:37.978Z,96.70
2018-07-08T07:37:06.473Z,97.00
2018-07-08T07:39:34.746Z,96.70
2018-07-08T07:42:07.869Z,96.20
2018-07-08T07:44:47.947Z,96.00
2018-07-08T07:47:16.259Z,95.90
2018-07-08T07:49:44.531Z,95.90
2018-07-08T07:52:19.289Z,95.80
2018-07-08T07:54:47.558Z,95.70
2018-07-08T07:57:29.613Z,96.10
2018-07-08T08:00:01.879Z,96.00
2018-07-08T08:02:32.322Z,96.00
2018-07-08T08:05:00.779Z,96.30
2018-07-08T08:07:29.044Z,95.90
2018-07-08T08:09:57.255Z,95.40
2018-07-08T08:12:31.888Z,94.80
2018-07-08T08:15:06.915Z,94.20
2018-07-08T08:17:46.980Z,94.00
2018-07-08T08:20:15.359Z,94.00
2018-07-08T08:22:43.645Z,93.30
2018-07-08T08:25:18.241Z,92.80
2018-07-08T08:27:46.533Z,92.60
2018-07-08T08:30:17.765Z,92.20
2018-07-08T08:32:48.223Z,91.60
2018-07-08T08:35:20.387Z,91.30
2018-07-08T08:37:52.142Z,90.70
2018-07-08T08:40:29.122Z,90.20
2018-07-08T08:42:57.447Z,88.80
2018-07-08T08:45:29.045Z,88.50
2018-07-08T08:47:57.302Z,88.20
2018-07-08T08:50:31.937Z,87.70
2018-07-08T08:53:00.651Z,86.70
2018-07-08T08:55:28.898Z,86.30
2018-07-08T08:58:01.739Z,86.00
2018-07-08T09:00:30.153Z,84.50
2018-07-08T09:02:58.636Z,82.70
2018-07-08T09:05:27.029Z,81.00
2018-07-08T09:07:55.261Z,80.00
2018-07-08T09:10:26.442Z,80.20
2018-07-08T09:13:01.978Z,80.00
2018-07-08T09:15:36.501Z,78.50
2018-07-08T09:18:09.704Z,78.30
2018-07-08T09:20:41.376Z,78.90
2018-07-08T09:23:09.694Z,78.10
2018-07-08T09:25:40.882Z,78.10
2018-07-08T09:28:09.216Z,77.20
2018-07-08T09:30:37.751Z,76.80
2018-07-08T09:33:05.992Z,75.60
2018-07-08T09:35:45.761Z,75.30
2018-07-08T09:38:14.103Z,76.00
2018-07-08T09:40:42.315Z,75.10
2018-07-08T09:43:16.936Z,73.70
2018-07-08T09:45:48.361Z,74.00
2018-07-08T09:48:20.944Z,73.30
2018-07-08T09:50:49.213Z,72.00
2018-07-08T09:53:24.685Z,71.70
2018-07-08T09:55:57.673Z,71.60
2018-07-08T09:58:28.126Z,70.70
2018-07-08T10:01:03.399Z,70.00
2018-07-08T10:03:33.274Z,69.50
2018-07-08T10:06:05.351Z,70.30
2018-07-08T10:08:36.382Z,69.20
2018-07-08T10:11:07.482Z,68.80
2018-07-08T10:13:38.696Z,68.10
2018-07-08T10:16:07.030Z,67.90
2018-07-08T10:18:35.290Z,67.50
2018-07-08T10:21:12.175Z,66.70
2018-07-08T10:23:40.463Z,67.00
2018-07-08T10:26:10.935Z,67.70
2018-07-08T10:28:39.278Z,67.00
2018-07-08T10:31:11.150Z,65.80
2018-07-08T10:33:56.061Z,65.00
2018-07-08T10:36:31.631Z,65.50
2018-07-08T10:39:04.127Z,64.90
2018-07-08T10:41:32.353Z,65.10
2018-07-08T10:44:03.439Z,64.10
2018-07-08T10:46:31.914Z,62.90
2018-07-08T10:48:59.965Z,62.30
2018-07-08T10:51:34.720Z,62.40
2018-07-08T10:54:03.150Z,62.20
2018-07-08T10:56:31.429Z,61.60
2018-07-08T10:59:02.605Z,61.80
2018-07-08T11:01:37.222Z,62.20
2018-07-08T11:04:09.924Z,62.20
2018-07-08T11:06:42.389Z,61.70
2018-07-08T11:09:10.865Z,61.30
2018-07-08T11:11:46.356Z,61.30
2018-07-08T11:14:14.682Z,61.70
2018-07-08T11:16:56.760Z,61.10
2018-07-08T11:19:30.304Z,61.60
2018-07-08T11:22:02.802Z,61.20
2018-07-08T11:24:37.341Z,61.00
2018-07-08T11:27:08.516Z,60.60
2018-07-08T11:29:36.755Z,60.10
2018-07-08T11:32:05.312Z,59.50
2018-07-08T11:34:33.632Z,59.50
2018-07-08T11:37:01.806Z,59.20
2018-07-08T11:39:33.158Z,59.40
2018-07-08T11:42:03.490Z,59.40
2018-07-08T11:44:35.140Z,59.80
2018-07-08T11:47:10.022Z,60.00
2018-07-08T11:49:38.253Z,59.50
2018-07-08T11:52:11.426Z,59.20
2018-07-08T11:54:45.788Z,58.70
2018-07-08T11:57:26.552Z,58.50
2018-07-08T12:00:03.198Z,58.50
2018-07-08T12:02:31.462Z,58.30
2018-07-08T12:05:00.308Z,58.00
2018-07-08T12:07:28.506Z,57.90
2018-07-08T12:09:56.931Z,57.50
2018-07-08T12:12:38.971Z,57.70
2018-07-08T12:15:19.180Z,57.30
2018-07-08T12:17:50.274Z,56.70
2018-07-08T12:20:22.364Z,56.40
2018-07-08T12:23:02.551Z,56.30
2018-07-08T12:25:31.032Z,55.90
2018-07-08T12:28:09.358Z,55.50
2018-07-08T12:30:37.715Z,55.40
2018-07-08T12:33:08.260Z,55.60
2018-07-08T12:35:36.480Z,54.90
2018-07-08T12:38:10.219Z,54.20
2018-07-08T12:40:38.478Z,53.60
2018-07-08T12:43:10.894Z,54.10
2018-07-08T12:45:43.291Z,54.20
2018-07-08T12:48:18.401Z,54.80
2018-07-08T12:50:48.767Z,54.60
2018-07-08T12:53:19.233Z,54.40
2018-07-08T12:55:49.793Z,54.20
2018-07-08T12:58:27.991Z,54.20
2018-07-08T13:00:56.349Z,54.30
2018-07-08T13:03:24.677Z,53.20
2018-07-08T13:05:57.273Z,54.20
2018-07-08T13:08:25.642Z,54.50
2018-07-08T13:10:59.084Z,54.50
2018-07-08T13:13:33.671Z,54.40
2018-07-08T13:16:01.958Z,54.50
2018-07-08T13:18:37.406Z,54.90
2018-07-08T13:21:08.671Z,55.10
2018-07-08T13:23:43.379Z,54.50
2018-07-08T13:26:21.309Z,54.40
2018-07-08T13:28:54.863Z,54.50
2018-07-08T13:31:27.522Z,54.30
2018-07-08T13:34:02.045Z,54.40
2018-07-08T13:36:41.725Z,54.40
2018-07-08T13:39:10.992Z,54.20
2018-07-08T13:41:50.881Z,54.20
2018-07-08T13:44:23.518Z,54.10
2018-07-08T13:46:54.502Z,54.30
2018-07-08T13:49:23.131Z,54.30
2018-07-08T13:51:51.440Z,54.10
2018-07-08T13:54:19.607Z,53.90
2018-07-08T13:56:54.368Z,53.20
2018-07-08T13:59:22.628Z,52.80
2018-07-08T14:01:56.032Z,53.20
2018-07-08T14:04:32.757Z,53.20
2018-07-08T14:07:01.022Z,53.30
2018-07-08T14:09:46.044Z,53.60
2018-07-08T14:12:18.338Z,53.40
2018-07-08T14:14:46.762Z,53.80
2018-07-08T14:17:15.038Z,53.50
2018-07-08T14:19:43.261Z,53.20
2018-07-08T14:22:18.562Z,53.70
2018-07-08T14:24:51.617Z,53.60
2018-07-08T14:27:19.846Z,53.60
2018-07-08T14:29:48.445Z,53.30
2018-07-08T14:32:16.707Z,52.90
2018-07-08T14:34:52.421Z,52.70
2018-07-08T14:37:20.715Z,52.80
2018-07-08T14:39:54.066Z,52.70
2018-07-08T14:42:31.066Z,53.00
2018-07-08T14:45:02.656Z,53.30
2018-07-08T14:47:35.995Z,53.30
2018-07-08T14:50:06.894Z,53.40
2018-07-08T14:52:41.450Z,53.30
2018-07-08T14:55:12.589Z,53.20
2018-07-08T14:57:44.919Z,53.20
2018-07-08T15:00:25.829Z,53.10
2018-07-08T15:02:54.173Z,53.20
2018-07-08T15:05:28.831Z,53.10
2018-07-08T15:07:57.113Z,52.80
2018-07-08T15:10:29.500Z,53.30
2018-07-08T15:13:02.241Z,53.60
2018-07-08T15:15:30.542Z,53.50
2018-07-08T15:18:05.868Z,53.90
2018-07-08T15:20:40.566Z,53.60
2018-07-08T15:23:08.744Z,54.00
2018-07-08T15:25:43.330Z,53.90
2018-07-08T15:28:16.242Z,53.70
2018-07-08T15:30:44.565Z,53.80
2018-07-08T15:33:13.125Z,54.00
2018-07-08T15:35:49.949Z,54.10
2018-07-08T15:41:05.547Z,53.90
2018-07-08T15:43:35.912Z,54.10
2018-07-08T15:46:04.300Z,54.00
2018-07-08T15:48:32.551Z,53.90
2018-07-08T15:51:07.169Z,54.80
2018-07-08T15:53:35.387Z,55.00
2018-07-08T15:56:10.238Z,55.00
2018-07-08T15:58:38.546Z,55.20
2018-07-08T16:01:07.199Z,55.20
2018-07-08T16:03:35.529Z,55.10
2018-07-08T16:06:03.978Z,55.40
2018-07-08T16:08:35.272Z,55.40
2018-07-08T16:11:06.316Z,55.40
2018-07-08T16:13:36.857Z,55.30
2018-07-08T16:16:08.054Z,55.50
2018-07-08T16:18:36.320Z,55.70
2018-07-08T16:21:11.028Z,56.00
2018-07-08T16:23:39.235Z,56.20
2018-07-08T16:26:16.872Z,56.50
2018-07-08T16:28:45.149Z,56.60
2018-07-08T16:31:18.462Z,56.60
2018-07-08T16:33:56.953Z,56.80
2018-07-08T16:36:30.058Z,56.90
2018-07-08T16:39:06.592Z,56.80
2018-07-08T16:44:02.835Z,57.10
2018-07-08T16:46:36.361Z,57.00
2018-07-08T16:49:07.505Z,57.00
2018-07-08T16:51:39.902Z,57.10
2018-07-08T16:54:11.120Z,57.20
2018-07-08T16:56:42.236Z,57.30
2018-07-08T16:59:14.698Z,57.80
2018-07-08T17:01:49.261Z,58.10
2018-07-08T17:04:17.502Z,58.30
2018-07-08T17:06:48.170Z,58.60
2018-07-08T17:09:20.954Z,59.20
2018-07-08T17:11:49.404Z,59.70
2018-07-08T17:16:50.506Z,60.50
2018-07-08T17:19:18.841Z,60.80
2018-07-08T17:21:47.099Z,60.70
2018-07-08T17:24:18.190Z,60.90
2018-07-08T17:26:55.974Z,61.00
2018-07-08T17:29:27.291Z,61.40
2018-07-08T17:34:31.350Z,62.40
2018-07-08T17:37:09.192Z,62.70
2018-07-08T17:39:37.714Z,62.50
2018-07-08T17:42:06.100Z,62.70
2018-07-08T17:44:37.850Z,63.00
2018-07-08T17:47:14.012Z,63.10
2018-07-08T17:49:42.431Z,63.20
2018-07-08T17:52:10.682Z,63.30
2018-07-08T17:54:43.169Z,63.70
2018-07-08T17:57:15.769Z,63.90
2018-07-08T17:59:46.153Z,64.20
2018-07-08T18:02:14.530Z,64.30
2018-07-08T18:04:48.060Z,64.40
2018-07-08T18:07:16.280Z,64.40
2018-07-08T18:09:48.388Z,64.70
2018-07-08T18:12:18.984Z,64.70
2018-07-08T18:14:54.868Z,64.80
2018-07-08T18:17:23.695Z,65.10
2018-07-08T18:19:51.916Z,65.40
2018-07-08T18:22:23.122Z,65.60
2018-07-08T18:24:56.456Z,65.90
2018-07-08T18:30:02.579Z,66.20
2018-07-08T18:32:40.785Z,66.00
2018-07-08T18:35:11.183Z,65.90
2018-07-08T18:37:44.382Z,66.20
2018-07-08T18:40:13.067Z,66.40
2018-07-08T18:42:52.651Z,66.60
2018-07-08T18:45:26.009Z,66.90
2018-07-08T18:47:57.355Z,67.30
2018-07-08T18:50:27.963Z,67.40
2018-07-08T18:52:59.406Z,67.90
2018-07-08T18:55:33.762Z,68.30
2018-07-08T18:58:04.937Z,68.80
2018-07-08T19:00:33.152Z,68.90
2018-07-08T19:03:06.471Z,69.20
2018-07-08T19:05:34.739Z,69.40
2018-07-08T19:08:05.940Z,69.70
2018-07-08T19:10:34.429Z,70.10
2018-07-08T19:13:02.755Z,70.50
2018-07-08T19:15:30.999Z,70.90
2018-07-08T19:18:05.741Z,71.30
2018-07-08T19:20:33.987Z,71.80
2018-07-08T19:23:02.456Z,72.40
2018-07-08T19:25:43.406Z,73.00
2018-07-08T19:28:11.910Z,73.70
2018-07-08T19:30:40.433Z,74.30
2018-07-08T19:33:11.052Z,74.80
2018-07-08T19:35:39.559Z,75.40
2018-07-08T19:38:12.777Z,76.00
2018-07-08T19:40:41.414Z,76.40
2018-07-08T19:43:17.256Z,77.00
2018-07-08T19:45:55.375Z,77.50
2018-07-08T19:48:32.303Z,78.10
2018-07-08T19:51:00.741Z,78.40
2018-07-08T19:53:28.951Z,79.10
2018-07-08T19:56:02.698Z,79.60
2018-07-08T19:58:30.969Z,80.10
2018-07-08T20:01:11.270Z,80.40
2018-07-08T20:03:45.855Z,80.80
2018-07-08T20:06:20.606Z,81.30
2018-07-08T20:08:49.053Z,81.80
2018-07-08T20:11:17.348Z,82.50
2018-07-08T20:13:53.706Z,83.00
2018-07-08T20:16:29.454Z,83.50
2018-07-08T20:18:57.631Z,84.30
2018-07-08T20:21:30.913Z,85.10
2018-07-08T20:24:03.260Z,85.80
2018-07-08T20:26:37.455Z,86.80
2018-07-08T20:29:06.007Z,87.80
2018-07-08T20:31:36.515Z,88.60
2018-07-08T20:34:05.356Z,89.50
2018-07-08T20:36:42.977Z,90.20
2018-07-08T20:39:11.409Z,90.50
2018-07-08T20:41:44.482Z,90.80
2018-07-08T20:44:16.341Z,91.10
2018-07-08T20:46:53.042Z,91.40
2018-07-08T20:49:21.321Z,91.60
2018-07-08T20:51:52.451Z,92.00
2018-07-08T20:54:25.156Z,92.30
2018-07-08T20:57:00.641Z,92.60
2018-07-08T20:59:35.103Z,92.90
2018-07-08T21:04:44.253Z,93.50
2018-07-08T21:07:12.488Z,93.80
2018-07-08T21:09:45.151Z,94.00
2018-07-08T21:12:13.518Z,94.30
2018-07-08T21:14:51.351Z,94.50
2018-07-08T21:17:29.606Z,94.70
2018-07-08T21:20:00.207Z,95.00
2018-07-08T21:22:31.410Z,95.20
2018-07-08T21:24:59.679Z,95.60
2018-07-08T21:27:32.345Z,96.20
2018-07-08T21:30:00.669Z,95.90
2018-07-08T21:32:29.237Z,96.30
2018-07-08T21:34:57.945Z,96.50
2018-07-08T21:37:26.403Z,96.70
2018-07-08T21:39:54.917Z,96.90
2018-07-08T21:42:23.280Z,97.10
2018-07-08T21:44:51.628Z,97.30
2018-07-08T21:47:20.547Z,97.50
2018-07-08T21:49:48.900Z,97.80
2018-07-08T21:52:17.138Z,98.00
2018-07-08T21:54:51.635Z,98.20
2018-07-08T21:57:20.064Z,98.40
2018-07-08T21:59:54.293Z,98.60
2018-07-08T22:02:25.266Z,98.90
2018-07-08T22:04:53.501Z,99.10
2018-07-08T22:07:33.594Z,99.30
2018-07-08T22:10:03.897Z,99.60
2018-07-08T22:12:38.125Z,99.80
2018-07-08T22:15:06.384Z,99.90
2018-07-08T22:17:45.185Z,99.90
2018-07-08T22:20:13.495Z,99.90
2018-07-08T22:22:41.854Z,99.90
2018-07-08T22:25:10.189Z,99.90
2018-07-08T22:27:42.689Z,99.90
2018-07-08T22:30:16.428Z,99.90
2018-07-08T22:32:44.891Z,99.90
2018-07-08T22:35:13.290Z,99.90
2018-07-08T22:37:41.563Z,99.90
2018-07-08T22:40:15.003Z,99.90
2018-07-08T22:42:52.655Z,99.90
2018-07-08T22:45:20.948Z,99.90
2018-07-08T22:47:58.650Z,99.90
2018-07-08T22:50:26.893Z,99.90
2018-07-08T22:53:04.678Z,99.90
2018-07-08T22:55:35.121Z,99.90
2018-07-08T22:58:06.298Z,99.90
2018-07-08T23:00:50.188Z,99.90
2018-07-08T23:03:59.167Z,99.90
2018-07-08T23:06:30.360Z,99.90
2018-07-08T23:08:58.470Z,99.90
2018-07-08T23:11:29.640Z,99.90
2018-07-08T23:14:00.680Z,99.90
2018-07-08T23:16:40.589Z,99.90
2018-07-08T23:19:08.993Z,99.90
2018-07-08T23:21:40.203Z,99.90
2018-07-08T23:24:08.510Z,99.90
2018-07-08T23:26:41.996Z,99.90
2018-07-08T23:29:10.285Z,99.90
2018-07-08T23:31:41.976Z,99.90
2018-07-08T23:34:10.265Z,99.90
2018-07-08T23:36:41.352Z,99.90
2018-07-08T23:39:12.697Z,99.90
2018-07-08T23:41:41.353Z,99.90
2018-07-08T23:46:49.010Z,99.90
2018-07-08T23:49:17.742Z,99.90
2018-07-08T23:51:47.917Z,99.90
2018-07-08T23:54:16.265Z,99.90
2018-07-08T23:56:48.798Z,99.90
2018-07-08T23:59:17.018Z,99.90
